Time;durP1;ratioP1;P1;durP2;ratioP2;P2;SDS_P1;SDS_P2;PMS_P1;PMS_P2;Temp;Humidity;BMP_temperature;BMP_pressure;BME280_temperature;BME280_humidity;BME280_pressure;Samples;Min_cycle;Max_cycle;Signal;HPM_P1;HPM_P2
2022/08/07 00:01:30;;;;;;;;;3.33;3.33;;;;;19.74;39.47;101648.63;4909474;29;45561;-89
2022/08/07 00:03:59;;;;;;;;;3.00;3.00;;;;;19.77;38.95;101651.31;4894935;29;45453;-89
2022/08/07 00:06:25;;;;;;;;;3.00;3.00;;;;;19.73;39.09;101644.16;4910551;29;46168;-89
2022/08/07 00:08:50;;;;;;;;;5.00;3.67;;;;;19.76;38.85;101648.63;4876952;29;45831;-88
2022/08/07 00:11:16;;;;;;;;;3.00;3.00;;;;;19.75;39.61;101653.13;4894567;29;45686;-89
2022/08/07 00:13:44;;;;;;;;;7.00;4.00;;;;;19.66;39.77;101636.97;4895507;29;44956;-87
2022/08/07 00:16:09;;;;;;;;;4.00;4.00;;;;;19.62;39.40;101632.53;4900221;29;46867;-88
2022/08/07 00:18:38;;;;;;;;;5.00;3.67;;;;;19.63;40.03;101639.69;4908317;29;45416;-88
2022/08/07 00:21:05;;;;;;;;;2.67;2.67;;;;;19.49;40.46;101630.81;4893557;29;44832;-89
2022/08/07 00:23:35;;;;;;;;;5.00;5.00;;;;;19.48;40.43;101623.66;4893619;29;45356;-88
2022/08/07 00:26:04;;;;;;;;;4.33;4.33;;;;;19.55;40.16;101636.16;4893612;29;47866;-88
2022/08/07 00:28:30;;;;;;;;;4.33;4.33;;;;;19.45;40.05;101623.66;4892095;29;45798;-88
2022/08/07 00:30:57;;;;;;;;;3.00;3.00;;;;;19.49;39.81;101639.84;4893517;29;45197;-88
2022/08/07 00:33:27;;;;;;;;;3.00;3.00;;;;;19.42;40.31;101627.28;4910090;29;45380;-88
2022/08/07 00:35:55;;;;;;;;;4.00;4.00;;;;;19.38;39.96;101634.50;4893192;29;47440;-88
2022/08/07 00:38:21;;;;;;;;;3.33;3.33;;;;;19.37;41.13;101637.25;4893408;29;45253;-88
2022/08/07 00:40:47;;;;;;;;;5.00;5.00;;;;;19.31;40.20;101627.41;4908691;29;45355;-88
2022/08/07 00:43:13;;;;;;;;;4.00;4.00;;;;;19.21;40.90;101614.88;4909602;29;44805;-89
2022/08/07 00:45:39;;;;;;;;;4.00;4.00;;;;;19.27;41.49;101628.31;4895033;29;45519;-88
2022/08/07 00:48:08;;;;;;;;;4.00;4.00;;;;;19.25;40.90;101622.06;4912398;28;45418;-87
2022/08/07 00:50:34;;;;;;;;;3.00;3.00;;;;;19.23;40.96;101623.88;4911903;29;45376;-89
2022/08/07 00:53:00;;;;;;;;;2.33;2.00;;;;;19.20;40.81;101623.88;4895067;29;45619;-88
2022/08/07 00:55:26;;;;;;;;;3.00;3.00;;;;;19.19;41.16;101630.19;4911270;29;45483;-89
2022/08/07 00:57:53;;;;;;;;;2.00;2.00;;;;;19.17;40.79;101619.41;4894386;29;45363;-88
2022/08/07 01:00:19;;;;;;;;;5.00;5.00;;;;;19.09;40.75;101598.81;4894311;29;45633;-88
2022/08/07 01:02:45;;;;;;;;;3.67;3.67;;;;;19.15;41.22;101614.94;4908510;28;45617;-88
2022/08/07 01:05:12;;;;;;;;;3.00;3.00;;;;;19.16;40.63;101612.22;4892378;29;46661;-88
2022/08/07 01:07:38;;;;;;;;;3.67;3.67;;;;;19.17;41.34;101618.53;4891924;28;45384;-88
2022/08/07 01:10:05;;;;;;;;;3.67;2.00;;;;;19.16;41.18;101616.72;4891658;29;45424;-88
2022/08/07 01:12:30;;;;;;;;;3.00;3.00;;;;;19.16;40.75;101608.63;4893083;29;45368;-87
2022/08/07 01:14:58;;;;;;;;;4.33;4.00;;;;;19.14;41.47;101605.03;4893799;29;46537;-88
2022/08/07 01:17:24;;;;;;;;;4.67;4.67;;;;;19.09;41.65;101594.31;4894435;29;45956;-87
2022/08/07 01:19:52;;;;;;;;;3.33;3.33;;;;;19.13;42.20;101601.47;4893527;29;45484;-88
2022/08/07 01:22:19;;;;;;;;;4.00;4.00;;;;;19.11;42.29;101603.28;4908735;29;45449;-88
2022/08/07 01:24:45;;;;;;;;;5.00;5.00;;;;;19.06;42.67;101606.91;4890544;29;47076;-88
2022/08/07 01:27:11;;;;;;;;;3.33;3.33;;;;;18.90;42.60;101588.13;4890438;29;45519;-88
2022/08/07 01:29:40;;;;;;;;;5.00;5.00;;;;;18.97;43.00;101608.75;4891201;29;45457;-88
2022/08/07 01:32:06;;;;;;;;;2.67;2.67;;;;;18.89;42.52;101602.53;4890727;29;45344;-88
2022/08/07 01:34:32;;;;;;;;;3.00;3.00;;;;;18.89;42.94;101597.13;4895178;29;45519;-88
2022/08/07 01:36:59;;;;;;;;;4.33;4.00;;;;;18.93;42.24;101609.69;4909448;28;45487;-88
2022/08/07 01:39:25;;;;;;;;;4.00;4.00;;;;;18.90;42.11;101600.72;4880035;29;45560;-88
2022/08/07 01:41:51;;;;;;;;;5.00;5.00;;;;;18.79;43.67;101593.59;4879243;29;45402;-88
2022/08/07 01:44:18;;;;;;;;;4.00;4.00;;;;;18.86;43.00;101610.63;4893987;29;47002;-87
2022/08/07 01:46:43;;;;;;;;;5.00;5.00;;;;;18.84;42.90;101609.72;4878406;29;45373;-89
2022/08/07 01:49:10;;;;;;;;;3.33;3.33;;;;;18.83;43.03;101612.47;4894994;29;45636;-89
2022/08/07 01:51:36;;;;;;;;;4.00;4.00;;;;;18.76;43.92;101608.84;4889438;29;45968;-88
2022/08/07 01:54:55;;;;;;;;;4.67;3.33;;;;;18.76;43.70;101606.16;4893045;29;48326;-88
2022/08/07 01:57:27;;;;;;;;;5.00;5.00;;;;;18.70;42.92;101601.69;4893615;29;45302;-88
2022/08/07 02:00:25;;;;;;;;;4.00;4.00;;;;;18.71;43.55;101608.88;4893426;29;45324;-88
2022/08/07 02:03:00;;;;;;;;;3.00;3.00;;;;;18.68;43.41;101616.09;4890936;28;45858;-88
2022/08/07 02:05:36;;;;;;;;;4.00;3.33;;;;;18.70;43.43;101614.28;4932664;28;45392;-88
2022/08/07 02:08:16;;;;;;;;;3.00;3.00;;;;;18.69;43.39;101609.81;4932161;28;45389;-88
2022/08/07 02:10:43;;;;;;;;;3.00;3.00;;;;;18.68;43.26;101608.00;4931783;28;45345;-88
2022/08/07 02:13:11;;;;;;;;;3.33;3.33;;;;;18.72;43.54;101621.47;4914303;28;45311;-88
2022/08/07 02:15:38;;;;;;;;;3.67;3.67;;;;;18.68;43.38;101602.63;4925771;28;45153;-88
2022/08/07 02:18:05;;;;;;;;;3.33;3.00;;;;;18.65;43.83;101602.66;4911603;29;45812;-88
2022/08/07 02:20:32;;;;;;;;;4.00;4.00;;;;;18.65;43.41;101614.31;4912112;29;45402;-88
2022/08/07 02:23:01;;;;;;;;;4.33;3.00;;;;;18.63;43.29;101602.66;4913174;29;45397;-88
2022/08/07 02:25:30;;;;;;;;;5.00;5.00;;;;;18.64;43.88;101614.31;4896170;29;47436;-88
2022/08/07 02:27:59;;;;;;;;;3.00;3.00;;;;;18.62;43.68;101614.31;4912765;29;45354;-88
2022/08/07 02:30:26;;;;;;;;;3.00;3.00;;;;;18.58;43.52;101604.47;4879910;29;45818;-88
2022/08/07 02:32:53;;;;;;;;;4.00;2.67;;;;;18.56;44.08;101599.09;4896107;29;45290;-88
2022/08/07 02:35:19;;;;;;;;;3.00;3.00;;;;;18.57;44.12;101605.38;4896085;29;47024;-87
2022/08/07 02:37:46;;;;;;;;;3.33;3.33;;;;;18.42;44.17;101584.81;4895874;29;45426;-87
2022/08/07 02:40:12;;;;;;;;;4.67;4.00;;;;;18.48;46.08;101592.88;4895315;29;45332;-88
2022/08/07 02:42:39;;;;;;;;;4.67;4.00;;;;;18.43;44.49;101589.28;4912642;29;45498;-88
2022/08/07 02:45:08;;;;;;;;;4.00;4.00;;;;;18.43;44.83;101599.16;4896455;29;46870;-87
2022/08/07 02:47:33;;;;;;;;;3.00;3.00;;;;;18.35;44.96;101589.31;4907636;28;45477;-88
2022/08/07 02:49:59;;;;;;;;;3.00;3.00;;;;;18.36;45.45;101600.97;4914428;28;44786;-88
2022/08/07 02:52:41;;;;;;;;;2.00;2.00;;;;;18.31;44.79;101589.34;4915011;28;45398;-88
2022/08/07 02:55:13;;;;;;;;;4.00;4.00;;;;;18.32;45.25;101599.19;4915489;28;46714;-88
2022/08/07 02:57:39;;;;;;;;;6.33;5.00;;;;;18.12;45.48;101562.50;4914600;28;45767;-88
2022/08/07 03:00:07;;;;;;;;;3.00;3.00;;;;;18.23;45.31;101583.09;4932342;28;45224;-87
2022/08/07 03:02:35;;;;;;;;;6.00;3.33;;;;;18.25;45.52;101595.63;4932748;28;45368;-87
2022/08/07 03:05:02;;;;;;;;;4.33;4.33;;;;;18.09;47.54;101575.94;4915449;28;45419;-88
2022/08/07 03:07:30;;;;;;;;;5.00;5.00;;;;;18.18;46.00;101597.47;4915131;28;45506;-88
2022/08/07 03:09:55;;;;;;;;;4.00;4.00;;;;;18.12;46.09;101581.34;4914893;28;45449;-88
2022/08/07 03:12:21;;;;;;;;;4.00;3.33;;;;;18.13;45.84;101590.31;4914808;28;45443;-88
2022/08/07 03:14:47;;;;;;;;;5.00;3.00;;;;;18.04;47.08;101577.78;4898732;28;47100;-88
2022/08/07 03:17:16;;;;;;;;;3.00;3.00;;;;;18.05;46.18;101584.06;4915105;28;45360;-87
2022/08/07 03:19:42;;;;;;;;;5.67;4.00;;;;;18.05;46.39;101582.25;4915369;28;44797;-88
2022/08/07 03:22:08;;;;;;;;;3.00;3.00;;;;;18.06;47.14;101585.88;4915470;28;44853;-88
2022/08/07 03:24:34;;;;;;;;;4.00;4.00;;;;;18.02;46.74;101584.97;4915343;28;47282;-89
2022/08/07 03:27:02;;;;;;;;;4.33;4.33;;;;;18.01;46.81;101583.16;4914975;28;45649;-88
2022/08/07 03:29:33;;;;;;;;;3.67;3.67;;;;;18.03;46.59;101584.06;4906836;29;44836;-88
2022/08/07 03:32:04;;;;;;;;;3.67;3.67;;;;;18.03;46.31;101586.75;4897117;29;45415;-88
2022/08/07 03:34:31;;;;;;;;;4.33;3.33;;;;;18.01;46.51;101575.09;4912937;29;45395;-89
2022/08/07 03:37:01;;;;;;;;;2.00;2.00;;;;;18.01;47.08;101584.97;4896216;29;45103;-88
2022/08/07 03:39:32;;;;;;;;;4.00;3.33;;;;;17.95;46.58;101575.09;4894830;29;45272;-88
2022/08/07 03:41:59;;;;;;;;;4.00;4.00;;;;;17.90;47.79;101571.56;4911772;29;45433;-88
2022/08/07 03:44:26;;;;;;;;;3.00;3.00;;;;;17.97;47.17;101592.16;4895346;29;46916;-88
2022/08/07 03:46:52;;;;;;;;;5.00;5.00;;;;;17.96;47.57;101585.88;4912730;29;44721;-89
2022/08/07 03:49:18;;;;;;;;;5.67;4.33;;;;;17.88;47.74;101576.03;4912803;28;44898;-88
2022/08/07 03:51:43;;;;;;;;;4.00;3.00;;;;;17.90;47.79;101590.38;4895522;29;45510;-89
2022/08/07 03:54:16;;;;;;;;;3.67;3.67;;;;;17.87;47.91;101590.38;4895832;29;48412;-88
2022/08/07 03:56:43;;;;;;;;;4.00;4.00;;;;;17.80;47.54;101584.09;4895867;29;45844;-88
2022/08/07 03:59:11;;;;;;;;;1.00;1.00;;;;;17.85;47.92;101600.25;4896119;29;45690;-88
2022/08/07 04:01:41;;;;;;;;;4.67;4.67;;;;;17.84;48.00;101593.09;4894004;29;45563;-87
2022/08/07 04:04:06;;;;;;;;;3.33;3.33;;;;;17.74;48.40;101585.00;4912539;29;45392;-88
2022/08/07 04:06:33;;;;;;;;;4.67;4.67;;;;;17.78;48.13;101597.53;4912743;29;45284;-88
2022/08/07 04:09:00;;;;;;;;;3.67;3.00;;;;;17.76;48.39;101577.81;4911816;29;45397;-88
2022/08/07 04:11:26;;;;;;;;;4.00;4.00;;;;;17.75;48.46;101586.81;4913275;29;45664;-88
2022/08/07 04:13:53;;;;;;;;;3.67;3.67;;;;;17.77;48.42;101587.69;4910187;29;47002;-88
2022/08/07 04:16:19;;;;;;;;;3.33;3.33;;;;;17.77;48.78;101586.78;4909744;29;45482;-88
2022/08/07 04:18:46;;;;;;;;;3.00;2.00;;;;;17.78;48.92;101588.59;4895912;29;45423;-88
2022/08/07 04:21:11;;;;;;;;;3.33;3.33;;;;;17.75;48.93;101586.81;4913099;29;45166;-88
2022/08/07 04:23:37;;;;;;;;;6.00;4.00;;;;;17.76;48.58;101582.31;4910857;29;47899;-87
2022/08/07 04:26:06;;;;;;;;;3.33;3.33;;;;;17.76;48.21;101582.31;4895473;29;45363;-88
2022/08/07 04:28:31;;;;;;;;;6.00;4.00;;;;;17.68;49.31;101585.00;4895364;29;45463;-88
2022/08/07 04:30:57;;;;;;;;;3.33;3.33;;;;;17.68;49.88;101579.63;4909707;29;45285;-87
2022/08/07 04:33:24;;;;;;;;;3.00;3.00;;;;;17.68;49.36;101589.50;4910771;29;45411;-88
2022/08/07 04:35:49;;;;;;;;;4.00;4.00;;;;;17.68;49.91;101592.19;4910394;28;45268;-88
2022/08/07 04:38:15;;;;;;;;;5.00;2.00;;;;;17.56;50.03;101576.97;4912290;29;45276;-88
2022/08/07 04:40:43;;;;;;;;;3.00;3.00;;;;;17.62;49.40;101593.09;4926394;28;44962;-87
2022/08/07 04:43:09;;;;;;;;;3.00;3.00;;;;;17.65;49.51;101595.75;4913774;28;47178;-87
2022/08/07 04:46:00;;;;;;;;;3.00;3.00;;;;;17.63;49.30;101592.19;4913777;28;45512;-87
2022/08/07 04:48:49;;;;;;;;;4.00;4.00;;;;;17.66;49.37;101585.91;4914203;28;45398;-89
2022/08/07 04:51:27;;;;;;;;;0.67;0.67;;;;;17.72;49.47;101592.19;4913323;28;45411;-89
2022/08/07 04:53:59;;;;;;;;;7.00;5.33;;;;;17.73;49.69;101595.75;4912194;28;47555;-88
2022/08/07 04:56:34;;;;;;;;;3.00;3.00;;;;;17.71;50.07;101600.25;4912659;28;44871;-89
2022/08/07 04:59:10;;;;;;;;;6.00;6.00;;;;;17.69;50.20;101592.16;4913143;28;45443;-88
2022/08/07 05:01:44;;;;;;;;;4.67;4.67;;;;;17.73;50.38;101603.81;4896997;29;45506;-88
2022/08/07 05:04:15;;;;;;;;;8.00;6.67;;;;;17.76;50.80;101603.84;4890878;29;45360;-88
2022/08/07 05:06:55;;;;;;;;;5.00;5.00;;;;;17.82;50.87;101605.63;4890701;29;45216;-88
2022/08/07 05:09:52;;;;;;;;;6.00;4.33;;;;;17.89;50.88;101604.72;4891211;29;45479;-88
2022/08/07 05:12:25;;;;;;;;;5.33;5.33;;;;;17.93;50.69;101606.50;4887526;29;45442;-88
2022/08/07 05:14:55;;;;;;;;;5.00;5.00;;;;;18.01;50.38;101609.19;4891663;29;45688;-89
2022/08/07 05:17:24;;;;;;;;;6.00;6.00;;;;;18.09;50.92;101612.75;4890852;29;45516;-89
2022/08/07 05:19:52;;;;;;;;;5.00;5.00;;;;;18.14;50.52;101614.53;4889984;29;44845;-88
2022/08/07 05:22:23;;;;;;;;;5.00;5.00;;;;;18.19;50.06;101623.47;4890812;29;44819;-88
2022/08/07 05:24:54;;;;;;;;;3.33;3.33;;;;;18.24;49.97;101615.41;4909175;29;47216;-88
2022/08/07 05:27:21;;;;;;;;;5.00;5.00;;;;;18.40;49.75;101624.31;4894703;29;45161;-88
2022/08/07 05:29:49;;;;;;;;;5.33;4.67;;;;;18.45;49.83;101619.78;4896036;29;45374;-88
2022/08/07 05:32:17;;;;;;;;;5.00;5.00;;;;;18.59;49.59;101635.91;4894312;29;45554;-88
2022/08/07 05:34:45;;;;;;;;;4.00;4.00;;;;;18.68;49.57;101630.44;4893904;29;47264;-88
2022/08/07 05:37:13;;;;;;;;;5.00;5.00;;;;;18.72;48.74;101620.56;4894477;29;45404;-88
2022/08/07 05:39:39;;;;;;;;;5.00;5.00;;;;;18.82;49.13;101634.91;4911461;29;45343;-88
2022/08/07 05:42:07;;;;;;;;;6.00;6.00;;;;;18.89;48.70;101625.91;4895698;29;44847;-89
2022/08/07 05:44:35;;;;;;;;;4.00;4.00;;;;;19.01;48.76;101632.97;4894815;29;47690;-88
2022/08/07 05:47:01;;;;;;;;;3.33;3.33;;;;;19.07;48.61;101627.59;4894843;29;45384;-88
2022/08/07 05:49:28;;;;;;;;;4.00;4.00;;;;;19.18;48.21;101629.28;4893956;29;45315;-88
2022/08/07 05:51:54;;;;;;;;;5.67;5.67;;;;;19.35;48.23;101639.94;4892493;29;45438;-88
2022/08/07 05:54:19;;;;;;;;;4.67;4.00;;;;;19.47;47.82;101630.88;4892384;29;47220;-88
2022/08/07 05:56:46;;;;;;;;;6.67;4.67;;;;;19.54;47.73;101623.59;4893601;29;45777;-88
2022/08/07 05:59:18;;;;;;;;;6.33;5.00;;;;;19.68;47.37;101634.28;4894571;29;45381;-88
2022/08/07 06:01:45;;;;;;;;;4.00;4.00;;;;;19.78;47.14;101636.00;4894759;29;45356;-88
2022/08/07 06:04:13;;;;;;;;;6.00;5.00;;;;;19.81;46.25;101638.66;4894270;29;47234;-88
2022/08/07 06:06:39;;;;;;;;;5.67;5.67;;;;;19.86;46.03;101630.53;4910128;29;44830;-88
2022/08/07 06:09:05;;;;;;;;;4.00;4.00;;;;;19.95;45.96;101614.22;4893924;29;45261;-88
2022/08/07 06:11:32;;;;;;;;;5.00;5.00;;;;;20.09;45.94;101623.06;4893104;29;44845;-88
2022/08/07 06:13:58;;;;;;;;;5.67;4.00;;;;;20.23;45.97;101630.13;4892191;29;47001;-88
2022/08/07 06:16:30;;;;;;;;;5.67;5.67;;;;;20.31;45.84;101633.63;4892447;29;44858;-88
2022/08/07 06:18:57;;;;;;;;;4.00;4.00;;;;;20.35;44.59;101630.88;4893380;29;45388;-88
2022/08/07 06:21:22;;;;;;;;;4.00;4.00;;;;;20.31;44.49;101629.13;4895072;29;45276;-89
2022/08/07 06:23:47;;;;;;;;;3.00;3.00;;;;;20.37;44.50;101639.84;4911095;29;46640;-88
2022/08/07 06:26:14;;;;;;;;;3.00;2.00;;;;;20.41;44.22;101635.31;4895651;29;44752;-88
2022/08/07 06:28:51;;;;;;;;;4.67;4.67;;;;;20.48;43.86;101646.91;4899017;29;45436;-88
2022/08/07 06:31:54;;;;;;;;;3.00;3.00;;;;;20.51;43.63;101634.28;4884077;29;45675;-88
2022/08/07 06:34:24;;;;;;;;;1.00;1.00;;;;;20.49;43.64;101627.09;4891170;29;47129;-88
2022/08/07 06:36:50;;;;;;;;;3.00;3.00;;;;;20.41;43.80;101632.59;4876482;29;44861;-89
2022/08/07 06:39:15;;;;;;;;;1.67;1.67;;;;;20.43;44.13;101633.47;4876686;29;45213;-87
2022/08/07 06:41:45;;;;;;;;;4.67;4.67;;;;;20.41;43.62;101637.13;4896414;28;45515;-88
2022/08/07 06:44:12;;;;;;;;;3.33;3.00;;;;;20.41;43.61;101635.31;4914005;28;47125;-87
2022/08/07 06:46:39;;;;;;;;;3.33;2.67;;;;;20.37;43.67;101634.44;4931446;28;45422;-88
2022/08/07 06:49:06;;;;;;;;;3.00;3.00;;;;;20.51;43.78;101625.28;4914985;28;45429;-88
2022/08/07 06:51:34;;;;;;;;;3.00;3.00;;;;;20.61;43.18;101628.78;4915177;28;44860;-88
2022/08/07 06:54:03;;;;;;;;;2.33;2.33;;;;;20.62;42.92;101633.28;4913620;28;47548;-87
2022/08/07 06:56:38;;;;;;;;;2.00;2.00;;;;;20.68;43.10;101631.41;4895501;29;45798;-88
2022/08/07 06:59:11;;;;;;;;;5.00;2.00;;;;;20.76;43.17;101632.19;4896345;29;44918;-88
2022/08/07 07:01:38;;;;;;;;;5.67;4.00;;;;;20.77;42.88;101631.25;4912812;29;45430;-88
2022/08/07 07:04:06;;;;;;;;;4.00;4.00;;;;;20.72;42.27;101605.19;4894615;29;48084;-88
2022/08/07 07:06:32;;;;;;;;;2.00;2.00;;;;;20.93;42.36;101633.75;4895159;29;45789;-88
2022/08/07 07:09:23;;;;;;;;;3.00;3.00;;;;;21.01;42.28;101644.47;4893059;29;45288;-89
2022/08/07 07:12:06;;;;;;;;;3.00;3.00;;;;;21.01;42.58;101626.41;4893513;29;45497;-88
2022/08/07 07:15:07;;;;;;;;;4.00;4.00;;;;;21.13;42.62;101628.03;4894260;29;46951;-88
2022/08/07 07:17:46;;;;;;;;;2.00;2.00;;;;;21.16;42.21;101625.28;4905864;29;45400;-89
2022/08/07 07:20:17;;;;;;;;;3.00;3.00;;;;;21.26;41.93;101626.91;4894479;29;45360;-88
2022/08/07 07:22:43;;;;;;;;;4.00;4.00;;;;;21.36;41.80;101633.06;4895483;29;45273;-88
2022/08/07 07:25:11;;;;;;;;;4.00;3.00;;;;;21.43;41.52;101623.97;4895868;29;46956;-88
2022/08/07 07:27:43;;;;;;;;;3.33;3.33;;;;;21.60;41.28;101639.03;4911962;29;44790;-88
2022/08/07 07:30:11;;;;;;;;;4.67;3.67;;;;;21.63;41.17;101633.53;4912030;29;45446;-88
2022/08/07 07:32:39;;;;;;;;;3.67;3.67;;;;;21.61;41.40;101630.84;4910708;29;45342;-88
2022/08/07 07:35:08;;;;;;;;;3.00;3.00;;;;;21.71;41.20;101629.81;4911242;29;45468;-89
2022/08/07 07:37:43;;;;;;;;;3.00;3.00;;;;;21.83;40.77;101627.78;4910817;29;44983;-88
2022/08/07 07:40:15;;;;;;;;;3.33;3.33;;;;;21.85;40.67;101634.94;4910909;29;45275;-88
2022/08/07 07:42:42;;;;;;;;;3.00;3.00;;;;;21.84;40.28;101630.47;4910605;29;45387;-88
2022/08/07 07:45:11;;;;;;;;;2.00;2.00;;;;;21.86;39.76;101628.63;4893569;29;47521;-88
2022/08/07 07:47:41;;;;;;;;;2.67;2.67;;;;;21.89;40.21;101623.13;4878767;29;45951;-88
2022/08/07 07:50:12;;;;;;;;;2.33;2.33;;;;;22.00;39.62;101625.66;4893715;29;45441;-88
2022/08/07 07:52:40;;;;;;;;;2.00;2.00;;;;;22.11;40.12;101617.31;4894413;29;45450;-87
2022/08/07 07:55:08;;;;;;;;;3.00;3.00;;;;;22.25;40.06;101609.81;4910591;29;47371;-88
2022/08/07 07:57:34;;;;;;;;;4.00;2.67;;;;;22.35;39.11;101615.94;4910117;29;45961;-89
2022/08/07 08:00:01;;;;;;;;;3.33;2.67;;;;;22.35;39.27;101610.53;4910808;29;45346;-89
2022/08/07 08:02:29;;;;;;;;;2.67;2.67;;;;;22.39;38.21;101612.25;4894123;29;45527;-88
2022/08/07 08:04:55;;;;;;;;;3.33;3.33;;;;;22.33;38.82;101601.53;4909278;28;47420;-87
2022/08/07 08:07:23;;;;;;;;;2.33;2.33;;;;;22.38;38.86;101607.78;4911248;29;45404;-88
2022/08/07 08:09:51;;;;;;;;;4.00;2.33;;;;;22.44;38.02;101610.34;4892129;29;45562;-87
2022/08/07 08:12:54;;;;;;;;;2.00;2.00;;;;;22.44;38.35;101610.34;4909178;29;45399;-87
2022/08/07 08:15:20;;;;;;;;;3.00;2.00;;;;;22.41;37.86;101599.56;4908706;29;48543;-88
2022/08/07 08:17:47;;;;;;;;;2.00;2.00;;;;;22.46;38.03;101608.50;4894376;29;45597;-88
2022/08/07 08:20:14;;;;;;;;;3.00;3.00;;;;;22.49;37.98;101597.56;4911070;29;45406;-89
2022/08/07 08:28:19;;;;;;;;;2.00;2.00;;;;;22.71;37.28;101599.81;4910794;29;45376;-87
2022/08/07 08:30:46;;;;;;;;;1.00;1.00;;;;;22.70;37.51;101589.88;4910940;29;45358;-87
2022/08/07 08:33:17;;;;;;;;;2.00;2.00;;;;;22.77;37.51;101589.72;4895592;29;45224;-87
2022/08/07 08:35:48;;;;;;;;;2.67;2.00;;;;;22.84;37.19;101592.28;4896207;29;47258;-88
2022/08/07 08:38:17;;;;;;;;;3.00;3.00;;;;;22.85;37.03;101580.50;4896203;29;45664;-89
2022/08/07 08:41:08;;;;;;;;;2.33;2.33;;;;;22.92;36.26;101585.72;4896899;29;45426;-89
2022/08/07 08:43:44;;;;;;;;;2.00;2.00;;;;;22.90;35.77;101602.97;4898097;29;45193;-89
2022/08/07 08:46:24;;;;;;;;;1.00;1.00;;;;;22.84;35.98;101593.16;4912654;29;46018;-89
2022/08/07 08:48:56;;;;;;;;;3.33;3.33;;;;;22.87;35.97;101575.94;4893292;29;45323;-89
2022/08/07 08:51:31;;;;;;;;;2.33;2.33;;;;;22.88;36.19;101584.03;4894510;29;45244;-88
2022/08/07 08:54:09;;;;;;;;;2.67;2.67;;;;;22.93;36.16;101573.97;4893660;29;45358;-88
2022/08/07 08:56:43;;;;;;;;;2.00;2.00;;;;;22.96;35.07;101571.16;4911493;29;45708;-89
2022/08/07 08:59:36;;;;;;;;;3.00;3.00;;;;;23.04;35.91;101594.56;4910497;29;45518;-89
2022/08/07 09:02:18;;;;;;;;;2.33;2.33;;;;;23.15;35.77;101597.91;4893941;29;45412;-88
2022/08/07 09:05:06;;;;;;;;;3.00;3.00;;;;;23.16;34.85;101592.41;4897041;29;45378;-88
2022/08/07 09:07:43;;;;;;;;;3.33;1.33;;;;;23.17;34.95;101582.47;4912338;29;47553;-88
2022/08/07 09:10:33;;;;;;;;;2.00;1.33;;;;;23.23;34.98;101579.59;4909767;29;45777;-88
2022/08/07 09:13:16;;;;;;;;;4.33;3.00;;;;;23.24;35.22;101591.34;4895693;29;45798;-88
2022/08/07 09:16:01;;;;;;;;;3.00;3.00;;;;;23.23;34.64;101584.13;4895146;29;44842;-88
2022/08/07 09:18:45;;;;;;;;;3.00;3.00;;;;;23.30;35.00;101588.47;4895774;29;46764;-88
2022/08/07 09:21:29;;;;;;;;;2.00;2.00;;;;;23.30;34.64;101583.03;4895031;29;45499;-89
2022/08/07 09:24:01;;;;;;;;;1.00;1.00;;;;;23.32;35.01;101595.63;4894543;29;45637;-88
2022/08/07 09:26:43;;;;;;;;;2.00;2.00;;;;;23.33;34.98;101580.28;4894959;29;44871;-88
2022/08/07 09:32:55;;;;;;;;;3.00;3.00;;;;;23.46;34.38;101586.25;4911409;29;44738;-89
2022/08/07 09:35:27;;;;;;;;;3.00;3.00;;;;;23.43;34.84;101575.47;4910288;29;45353;-88
2022/08/07 09:38:10;;;;;;;;;3.33;3.33;;;;;23.40;35.00;101579.16;4910419;29;45291;-88
2022/08/07 09:41:14;;;;;;;;;4.00;3.00;;;;;23.45;34.82;101584.47;4910586;29;46217;-88
2022/08/07 09:43:45;;;;;;;;;4.00;4.00;;;;;23.46;33.80;101578.13;4893568;29;45181;-88
2022/08/07 09:46:35;;;;;;;;;3.33;3.00;;;;;23.48;32.88;101579.84;4893458;29;45424;-88
2022/08/07 09:49:11;;;;;;;;;3.33;3.33;;;;;23.55;32.29;101569.72;4893624;29;45243;-88
2022/08/07 09:52:32;;;;;;;;;4.00;4.00;;;;;23.55;32.25;101569.72;4909066;29;47528;-87
2022/08/07 09:55:25;;;;;;;;;3.67;3.00;;;;;23.51;31.97;101566.22;4851145;29;45562;-88
2022/08/07 09:58:12;;;;;;;;;3.00;3.00;;;;;23.52;32.49;101564.38;4850529;29;45735;-88
2022/08/07 10:01:03;;;;;;;;;5.00;5.00;;;;;23.63;32.74;101572.22;4853517;29;45494;-89
2022/08/07 10:03:46;;;;;;;;;5.00;5.00;;;;;23.75;32.75;101561.03;4852898;29;47082;-88
2022/08/07 10:06:40;;;;;;;;;5.67;5.00;;;;;23.75;32.33;101551.06;4853460;29;45373;-88
2022/08/07 10:09:20;;;;;;;;;4.00;4.00;;;;;23.75;32.36;101558.31;4855331;29;45523;-88
2022/08/07 10:11:54;;;;;;;;;4.00;4.00;;;;;23.76;32.36;101547.41;4855609;29;45573;-88
2022/08/07 10:18:00;;;;;;;;;4.67;4.67;;;;;23.73;32.09;101539.38;4855189;29;45297;-88
2022/08/07 10:20:56;;;;;;;;;6.00;6.00;;;;;23.79;31.44;101541.03;4856503;29;45524;-88
2022/08/07 10:23:40;;;;;;;;;3.33;3.33;;;;;23.85;32.07;101540.84;4855979;29;45392;-88
2022/08/07 10:26:26;;;;;;;;;5.33;5.33;;;;;23.97;32.87;101531.47;4890730;29;45715;-88
2022/08/07 10:29:16;;;;;;;;;3.00;3.00;;;;;24.00;33.08;101527.78;4896766;29;45405;-88
2022/08/07 10:32:20;;;;;;;;;3.00;3.00;;;;;24.01;31.75;101535.88;4912192;29;45445;-87
2022/08/07 10:34:55;;;;;;;;;6.00;5.00;;;;;23.90;31.71;101527.16;4913258;29;45398;-88
2022/08/07 10:37:53;;;;;;;;;4.67;4.67;;;;;23.93;32.35;101527.06;4911210;29;48350;-88
2022/08/07 10:40:27;;;;;;;;;3.67;3.67;;;;;23.89;31.66;101519.91;4895720;29;45454;-89
2022/08/07 10:43:28;;;;;;;;;4.67;4.67;;;;;23.88;31.50;101520.88;4910958;28;45535;-89
2022/08/07 10:45:59;;;;;;;;;3.00;3.00;;;;;23.98;31.77;101518.78;4930497;28;45949;-88
2022/08/07 10:49:13;;;;;;;;;3.00;3.00;;;;;24.11;31.39;101523.78;4915262;28;47059;-88
2022/08/07 10:51:53;;;;;;;;;3.67;3.67;;;;;24.28;31.38;101530.53;4872405;29;45813;-89
2022/08/07 10:54:36;;;;;;;;;0.33;0.00;;;;;24.28;30.86;101516.94;4872604;29;45340;-89
2022/08/07 10:57:10;;;;;;;;;3.33;3.33;;;;;24.17;30.78;101503.69;4857335;29;45632;-88
2022/08/07 10:59:56;;;;;;;;;5.67;5.67;;;;;24.19;30.70;101515.41;4872235;29;47159;-89
2022/08/07 11:02:47;;;;;;;;;6.00;5.00;;;;;24.20;31.05;101513.56;4856537;29;45543;-88
2022/08/07 11:05:48;;;;;;;;;3.67;3.67;;;;;24.25;30.68;101506.19;4864522;29;45455;-88
2022/08/07 11:08:41;;;;;;;;;6.67;5.67;;;;;24.33;30.70;101504.13;4858483;29;45190;-88
2022/08/07 11:11:12;;;;;;;;;5.33;5.33;;;;;24.34;30.91;101495.03;4857379;29;47506;-89
2022/08/07 11:13:52;;;;;;;;;6.33;5.33;;;;;24.33;30.86;101488.69;4869591;29;45574;-89
2022/08/07 11:16:33;;;;;;;;;4.67;4.67;;;;;24.33;31.06;101477.81;4839478;29;45790;-89
2022/08/07 11:19:09;;;;;;;;;5.67;4.00;;;;;24.43;31.48;101480.25;4854757;29;45789;-88
2022/08/07 11:21:45;;;;;;;;;5.00;5.00;;;;;24.55;31.14;101478.06;4840005;29;46920;-89
2022/08/07 11:24:20;;;;;;;;;4.00;4.00;;;;;24.66;30.11;101479.53;4840563;29;45646;-88
2022/08/07 11:26:56;;;;;;;;;4.00;4.00;;;;;24.70;29.53;101482.13;4875653;29;44888;-88
2022/08/07 11:29:25;;;;;;;;;3.00;3.00;;;;;24.68;29.38;101480.38;4896844;29;45465;-88
2022/08/07 11:32:07;;;;;;;;;5.00;5.00;;;;;24.59;29.61;101477.97;4897778;29;48151;-88
2022/08/07 11:34:45;;;;;;;;;5.00;5.00;;;;;24.62;30.26;101480.56;4896646;29;45310;-90
2022/08/07 11:37:35;;;;;;;;;4.00;4.00;;;;;24.59;29.88;101465.25;4896026;29;45418;-88
2022/08/07 11:40:24;;;;;;;;;6.00;6.00;;;;;24.60;29.89;101477.00;4913147;29;45279;-88
2022/08/07 11:42:59;;;;;;;;;5.00;5.00;;;;;24.62;30.39;101459.72;4911770;29;46964;-88
2022/08/07 11:45:33;;;;;;;;;2.67;2.67;;;;;24.64;30.43;101448.75;4895463;29;45407;-88
2022/08/07 11:48:50;;;;;;;;;4.00;4.00;;;;;24.71;30.07;101463.97;4896060;29;45380;-88
2022/08/07 11:51:47;;;;;;;;;3.67;2.67;;;;;24.67;29.52;101448.69;4875100;29;45436;-87
2022/08/07 11:54:37;;;;;;;;;5.33;4.33;;;;;24.70;29.99;101454.00;4875444;29;48194;-88
2022/08/07 11:57:25;;;;;;;;;4.00;4.00;;;;;24.70;29.21;101444.03;4875228;29;44904;-90
2022/08/07 11:59:54;;;;;;;;;4.67;4.67;;;;;24.73;29.70;101443.03;4891338;29;44861;-90
2022/08/07 12:02:59;;;;;;;;;5.67;4.00;;;;;24.83;29.36;101451.78;4875908;29;44803;-89
2022/08/07 12:05:45;;;;;;;;;4.67;4.67;;;;;24.91;29.26;101447.84;4874737;29;46927;-89